Time;durP1;ratioP1;P1;durP2;ratioP2;P2;SDS_P1;SDS_P2;PMS_P1;PMS_P2;Temp;Humidity;BMP_temperature;BMP_pressure;BME280_temperature;BME280_humidity;BME280_pressure;Samples;Min_cycle;Max_cycle;Signal;HPM_P1;HPM_P2
2023/01/26 00:02:24;;;;;;;142.80;38.42;;;0.80;99.90;;;;;;5053265;28;20116;-90
2023/01/26 00:04:52;;;;;;;135.48;38.53;;;0.80;99.90;;;;;;5054075;28;20069;-90
2023/01/26 00:07:21;;;;;;;142.25;37.78;;;0.80;99.90;;;;;;5053097;28;20036;-91
2023/01/26 00:09:47;;;;;;;134.98;36.38;;;0.80;99.90;;;;;;5053246;28;20119;-90
2023/01/26 00:12:15;;;;;;;144.93;39.85;;;0.80;99.90;;;;;;5053025;28;20128;-89
2023/01/26 00:14:52;;;;;;;137.75;38.72;;;0.80;99.90;;;;;;5054313;28;20112;-91
2023/01/26 00:17:24;;;;;;;142.73;36.92;;;0.80;99.90;;;;;;5013045;28;1242751;-90
2023/01/26 00:19:53;;;;;;;139.93;38.67;;;0.70;99.90;;;;;;5053793;28;20064;-91
2023/01/26 00:22:21;;;;;;;139.10;36.90;;;0.70;99.90;;;;;;5053941;28;20033;-90
2023/01/26 00:24:50;;;;;;;145.30;37.05;;;0.70;99.90;;;;;;5053576;28;20036;-90
2023/01/26 00:27:16;;;;;;;148.07;38.30;;;0.70;99.90;;;;;;5054532;28;20059;-91
2023/01/26 00:29:41;;;;;;;146.30;37.90;;;0.70;99.90;;;;;;5053801;28;20058;-90
2023/01/26 00:32:10;;;;;;;122.15;35.33;;;0.70;99.90;;;;;;5055626;28;20037;-90
2023/01/26 00:34:36;;;;;;;148.23;39.03;;;0.60;99.90;;;;;;5055134;28;20123;-91
2023/01/26 00:37:01;;;;;;;138.18;36.95;;;0.60;99.90;;;;;;5053998;28;20055;-90
2023/01/26 00:39:27;;;;;;;143.32;37.58;;;0.60;99.90;;;;;;5053886;28;20087;-90
2023/01/26 00:42:10;;;;;;;145.55;37.38;;;0.50;99.90;;;;;;5054862;28;20060;-90
2023/01/26 00:44:37;;;;;;;132.02;35.03;;;0.50;99.90;;;;;;5042908;28;20041;-89
2023/01/26 00:47:06;;;;;;;138.98;36.60;;;0.50;99.90;;;;;;5057441;28;20083;-90
2023/01/26 00:49:38;;;;;;;133.57;36.28;;;0.50;99.90;;;;;;5058798;28;20366;-91
2023/01/26 00:52:04;;;;;;;144.15;37.55;;;0.50;99.90;;;;;;5066761;28;20021;-90
2023/01/26 00:54:30;;;;;;;138.25;36.08;;;0.50;99.90;;;;;;5079857;28;20021;-91
2023/01/26 00:56:56;;;;;;;146.40;38.08;;;0.50;99.90;;;;;;5080565;28;20013;-90
2023/01/26 00:59:34;;;;;;;132.68;36.83;;;0.50;99.90;;;;;;5060522;28;20473;-91
2023/01/26 01:02:02;;;;;;;140.98;34.40;;;0.60;99.90;;;;;;5041331;28;20044;-90
2023/01/26 01:04:32;;;;;;;132.00;32.67;;;0.60;99.90;;;;;;5058067;28;20028;-92
2023/01/26 01:07:03;;;;;;;133.75;35.78;;;0.60;99.90;;;;;;5057213;28;20029;-90
2023/01/26 01:09:32;;;;;;;131.75;35.47;;;0.70;99.90;;;;;;5056904;28;20037;-90
2023/01/26 01:11:57;;;;;;;111.95;32.55;;;0.60;99.90;;;;;;5057516;28;20029;-90
2023/01/26 01:14:25;;;;;;;128.85;34.53;;;0.70;99.90;;;;;;5063123;28;20029;-92
2023/01/26 01:16:50;;;;;;;123.10;35.80;;;0.60;99.90;;;;;;5039740;28;20489;-91
2023/01/26 01:19:17;;;;;;;124.20;34.88;;;0.60;99.90;;;;;;5057102;28;20040;-90
2023/01/26 01:21:45;;;;;;;125.22;33.10;;;0.70;99.90;;;;;;5056406;28;20025;-92
2023/01/26 01:24:17;;;;;;;125.28;33.92;;;0.70;99.90;;;;;;5057142;28;20103;-91
2023/01/26 01:26:45;;;;;;;125.22;33.70;;;0.70;99.90;;;;;;5056091;28;20092;-92
2023/01/26 01:29:13;;;;;;;127.85;35.00;;;0.70;99.90;;;;;;5057519;28;20029;-91
2023/01/26 01:31:40;;;;;;;133.30;34.33;;;0.80;99.90;;;;;;5056133;28;20036;-90
2023/01/26 01:34:06;;;;;;;132.98;36.92;;;0.80;99.90;;;;;;5039951;28;20136;-90
2023/01/26 01:36:31;;;;;;;125.50;34.40;;;0.80;99.90;;;;;;5056870;28;20033;-91
2023/01/26 01:39:00;;;;;;;110.45;32.85;;;0.80;99.90;;;;;;5057557;28;20031;-90
2023/01/26 01:41:25;;;;;;;122.60;34.47;;;0.80;99.90;;;;;;5056528;28;20461;-89
2023/01/26 01:44:29;;;;;;;121.00;33.35;;;0.80;99.90;;;;;;5055631;28;20036;-89
2023/01/26 01:47:04;;;;;;;118.88;32.75;;;0.80;99.90;;;;;;5060948;28;20033;-89
2023/01/26 01:49:44;;;;;;;116.55;33.00;;;0.80;99.90;;;;;;5073460;28;20053;-90
2023/01/26 01:52:18;;;;;;;127.63;33.87;;;0.80;99.90;;;;;;5068868;28;20033;-89
2023/01/26 01:54:58;;;;;;;112.45;31.60;;;0.80;99.90;;;;;;5061199;28;20037;-88
2023/01/26 01:57:43;;;;;;;114.60;31.85;;;0.80;99.90;;;;;;5059488;28;20317;-86
2023/01/26 02:00:17;;;;;;;125.57;31.90;;;0.80;99.90;;;;;;5058570;28;20033;-89
2023/01/26 02:03:09;;;;;;;115.70;30.98;;;0.80;99.90;;;;;;5056670;28;20025;-90
2023/01/26 02:05:38;;;;;;;121.55;32.47;;;0.90;99.90;;;;;;5057029;28;20072;-90
2023/01/26 02:08:14;;;;;;;;;;;;;;;;;;;;;
2023/01/26 02:10:42;;;;;;;113.70;30.17;;;0.80;99.90;;;;;;5058438;28;20017;-89
2023/01/26 02:13:11;;;;;;;103.85;30.02;;;0.80;99.90;;;;;;5038931;28;20547;-89
2023/01/26 02:15:37;;;;;;;108.13;29.75;;;0.80;99.90;;;;;;5039777;28;20041;-89
2023/01/26 02:18:09;;;;;;;100.32;29.00;;;0.80;99.90;;;;;;5055369;28;20063;-88
2023/01/26 02:20:58;;;;;;;102.22;30.15;;;0.90;99.90;;;;;;5056067;28;20025;-88
2023/01/26 02:23:38;;;;;;;115.72;31.08;;;0.90;99.90;;;;;;5055349;28;20040;-88
2023/01/26 02:26:11;;;;;;;103.72;28.58;;;0.90;99.90;;;;;;5056353;28;20033;-88
2023/01/26 02:28:41;;;;;;;104.70;27.33;;;0.90;99.90;;;;;;5055117;28;20040;-90
2023/01/26 02:31:14;;;;;;;97.73;27.27;;;0.90;99.90;;;;;;5038672;28;20503;-89
2023/01/26 02:33:41;;;;;;;94.97;29.42;;;0.80;99.90;;;;;;5055464;28;20751;-90
2023/01/26 02:36:19;;;;;;;96.32;27.80;;;0.90;99.90;;;;;;5057526;28;20040;-89
2023/01/26 02:39:08;;;;;;;96.13;27.35;;;0.90;99.90;;;;;;5063288;28;20048;-90
2023/01/26 02:44:22;;;;;;;93.15;27.13;;;0.80;99.90;;;;;;5061362;28;20484;-90
2023/01/26 02:46:51;;;;;;;102.97;27.63;;;0.80;99.90;;;;;;5055266;28;20037;-90
2023/01/26 02:52:06;;;;;;;94.03;27.63;;;0.90;99.90;;;;;;5056372;28;20049;-89
2023/01/26 02:57:19;;;;;;;104.70;27.23;;;0.90;99.90;;;;;;5056077;28;20045;-89
2023/01/26 02:59:44;;;;;;;97.65;27.65;;;0.90;99.90;;;;;;5054658;28;20032;-90
2023/01/26 03:02:11;;;;;;;101.65;28.13;;;1.00;99.90;;;;;;5038425;28;20037;-90
2023/01/26 03:04:36;;;;;;;107.57;28.30;;;1.00;99.90;;;;;;5054118;28;20448;-89
2023/01/26 03:07:04;;;;;;;102.85;28.95;;;1.00;99.90;;;;;;5054533;28;20029;-90
2023/01/26 03:09:30;;;;;;;94.47;27.40;;;1.10;99.90;;;;;;5054293;28;20396;-90
2023/01/26 03:11:56;;;;;;;95.78;26.17;;;1.10;99.90;;;;;;5037930;28;20033;-90
2023/01/26 03:14:21;;;;;;;92.18;27.85;;;1.10;99.90;;;;;;5054395;28;20083;-89
2023/01/26 03:16:49;;;;;;;86.18;26.45;;;1.10;99.90;;;;;;5063374;28;20097;-90
2023/01/26 03:27:43;;;;;;;96.10;27.83;;;1.20;99.90;;;;;;5054930;28;20052;-89
2023/01/26 03:30:10;;;;;;;86.25;25.63;;;1.20;99.90;;;;;;5055079;28;20108;-89
2023/01/26 03:32:35;;;;;;;81.97;24.17;;;1.20;99.90;;;;;;5054227;28;20152;-90
2023/01/26 03:35:04;;;;;;;74.28;24.48;;;1.20;99.90;;;;;;5054220;28;20148;-89
2023/01/26 03:37:33;;;;;;;87.20;24.88;;;1.30;99.90;;;;;;5053889;28;20036;-90
2023/01/26 03:56:26;;;;;;;72.32;23.65;;;1.30;99.90;;;;;;5056088;28;20100;-90
2023/01/26 03:58:54;;;;;;;74.18;24.05;;;1.30;99.90;;;;;;5037443;28;20500;-90
2023/01/26 04:01:26;;;;;;;70.40;22.52;;;1.30;99.90;;;;;;5053990;28;20147;-89
2023/01/26 04:09:28;;;;;;;82.55;23.27;;;1.40;99.90;;;;;;5055078;28;20040;-90
2023/01/26 04:11:54;;;;;;;76.63;23.10;;;1.40;99.90;;;;;;5053563;28;20040;-90
2023/01/26 04:22:45;;;;;;;74.00;22.67;;;1.40;99.90;;;;;;5058922;28;20099;-89
2023/01/26 04:25:15;;;;;;;67.45;21.30;;;1.40;99.90;;;;;;5057977;28;20041;-90
2023/01/26 04:27:41;;;;;;;56.03;18.92;;;1.40;99.90;;;;;;5057459;28;20040;-90
2023/01/26 04:30:11;;;;;;;60.90;20.60;;;1.40;99.90;;;;;;5056775;28;20137;-89
2023/01/26 04:32:40;;;;;;;54.00;19.87;;;1.40;99.90;;;;;;5056168;28;20025;-90
2023/01/26 04:35:07;;;;;;;59.97;18.48;;;1.40;99.90;;;;;;5057698;28;20259;-89
2023/01/26 04:37:33;;;;;;;57.17;19.27;;;1.40;99.90;;;;;;5057117;28;20033;-89
2023/01/26 04:39:59;;;;;;;68.85;22.02;;;1.40;99.90;;;;;;5057243;28;20027;-89
2023/01/26 04:42:27;;;;;;;61.20;20.45;;;1.40;99.90;;;;;;5056987;28;20103;-90
2023/01/26 04:44:55;;;;;;;57.40;20.58;;;1.40;99.90;;;;;;5057179;28;20036;-89
2023/01/26 04:47:21;;;;;;;55.50;19.75;;;1.50;99.90;;;;;;5056978;28;20025;-90
2023/01/26 04:49:47;;;;;;;59.60;19.85;;;1.50;99.90;;;;;;5040547;28;20075;-89
2023/01/26 04:52:16;;;;;;;67.53;21.50;;;1.50;99.90;;;;;;5040436;28;20033;-89
2023/01/26 04:54:42;;;;;;;60.08;19.75;;;1.50;99.90;;;;;;5056978;28;20033;-89
2023/01/26 04:57:08;;;;;;;59.50;20.58;;;1.50;99.90;;;;;;5057163;28;20074;-90
2023/01/26 04:59:34;;;;;;;62.42;20.98;;;1.50;99.90;;;;;;5056914;28;20025;-89
2023/01/26 05:02:00;;;;;;;59.08;20.45;;;1.50;99.90;;;;;;5056689;28;20063;-89
2023/01/26 05:04:28;;;;;;;61.63;21.23;;;1.50;99.90;;;;;;5040591;28;20045;-89
2023/01/26 05:06:56;;;;;;;64.47;22.13;;;1.50;99.90;;;;;;5041120;28;20148;-89
2023/01/26 05:09:22;;;;;;;62.85;20.65;;;1.50;99.90;;;;;;5041568;28;20040;-89
2023/01/26 05:11:47;;;;;;;60.05;21.10;;;1.50;99.90;;;;;;5046407;28;20037;-89
2023/01/26 05:14:34;;;;;;;62.63;20.70;;;1.50;99.90;;;;;;5068832;28;20040;-89
2023/01/26 05:17:12;;;;;;;59.53;21.38;;;1.50;99.90;;;;;;5059616;28;20049;-90
2023/01/26 05:19:40;;;;;;;63.97;21.50;;;1.60;99.90;;;;;;5041004;28;20049;-90
2023/01/26 05:22:06;;;;;;;61.22;19.60;;;1.60;99.90;;;;;;5057021;28;20047;-89
2023/01/26 05:24:31;;;;;;;63.25;21.75;;;1.60;99.90;;;;;;5040678;28;20029;-89
2023/01/26 05:29:45;;;;;;;62.65;20.35;;;1.60;99.90;;;;;;5059822;28;20060;-89
2023/01/26 05:32:11;;;;;;;61.88;21.00;;;1.60;99.90;;;;;;5057498;28;20067;-89
2023/01/26 05:34:39;;;;;;;65.32;21.52;;;1.60;99.90;;;;;;5059578;28;20040;-89
2023/01/26 05:37:05;;;;;;;70.72;21.35;;;1.60;99.90;;;;;;5063104;28;20037;-89
2023/01/26 05:39:33;;;;;;;59.28;21.20;;;1.60;99.90;;;;;;5043980;28;20037;-90
2023/01/26 05:41:59;;;;;;;60.13;21.40;;;1.60;99.90;;;;;;5060319;28;20040;-90
2023/01/26 05:44:28;;;;;;;59.08;20.65;;;1.70;99.90;;;;;;5078916;28;20069;-89
2023/01/26 05:46:53;;;;;;;58.40;19.77;;;1.70;99.90;;;;;;5077036;28;20033;-89
2023/01/26 05:49:22;;;;;;;63.78;20.88;;;1.70;99.90;;;;;;5052241;28;20029;-86
2023/01/26 05:51:49;;;;;;;67.75;21.83;;;1.70;99.90;;;;;;5063034;28;20138;-89
2023/01/26 05:54:15;;;;;;;68.80;20.95;;;1.70;99.90;;;;;;5077921;28;20023;-89
2023/01/26 05:56:43;;;;;;;59.65;21.10;;;1.70;99.90;;;;;;5077220;28;20045;-88
2023/01/26 05:59:09;;;;;;;69.30;20.88;;;1.70;99.90;;;;;;5078789;28;20021;-88
2023/01/26 06:01:39;;;;;;;60.63;19.92;;;1.70;99.90;;;;;;5078735;28;20020;-89
2023/01/26 06:04:05;;;;;;;55.00;19.27;;;1.70;99.90;;;;;;5062460;28;20056;-90
2023/01/26 06:06:31;;;;;;;53.15;18.92;;;1.70;99.90;;;;;;5075418;28;20275;-90
2023/01/26 06:08:57;;;;;;;55.58;20.33;;;1.70;99.90;;;;;;5072852;28;20033;-88
2023/01/26 06:11:29;;;;;;;64.63;21.17;;;1.70;99.90;;;;;;5074015;28;20060;-88
2023/01/26 06:13:58;;;;;;;53.47;19.40;;;1.70;99.90;;;;;;5062459;28;20071;-90
2023/01/26 06:16:46;;;;;;;55.17;18.67;;;1.80;99.90;;;;;;5062428;28;20044;-89
2023/01/26 06:19:15;;;;;;;63.33;19.48;;;1.70;99.90;;;;;;5057941;28;20033;-89
2023/01/26 06:21:41;;;;;;;54.28;18.65;;;1.70;99.90;;;;;;5041477;28;20100;-89
2023/01/26 06:24:09;;;;;;;63.58;19.15;;;1.70;99.90;;;;;;5056539;28;20064;-89
2023/01/26 06:26:38;;;;;;;58.08;19.10;;;1.80;99.90;;;;;;5055187;28;20321;-89
2023/01/26 06:29:14;;;;;;;;;;;;;;;;;;;;;
2023/01/26 06:31:40;;;;;;;58.92;18.85;;;1.80;99.90;;;;;;5056413;28;20029;-88
2023/01/26 06:34:07;;;;;;;50.85;18.20;;;1.80;99.90;;;;;;5055330;28;20124;-89
2023/01/26 06:36:36;;;;;;;66.18;20.02;;;1.80;99.90;;;;;;5055003;28;20037;-89
2023/01/26 06:39:05;;;;;;;49.67;18.58;;;1.80;99.90;;;;;;5055718;28;20033;-89
2023/01/26 06:41:38;;;;;;;55.47;18.27;;;1.80;99.90;;;;;;5054388;28;20029;-89
2023/01/26 06:44:04;;;;;;;57.60;19.40;;;1.80;99.90;;;;;;5054520;28;20493;-89
2023/01/26 06:46:30;;;;;;;58.92;19.88;;;1.80;99.90;;;;;;5054793;28;20033;-88
2023/01/26 06:48:56;;;;;;;55.00;19.05;;;1.80;99.90;;;;;;5054459;28;20037;-89
2023/01/26 06:52:12;;;;;;;62.50;19.58;;;1.80;99.90;;;;;;5054516;28;20492;-90
2023/01/26 06:54:38;;;;;;;62.75;20.45;;;1.80;99.90;;;;;;5044878;28;20496;-89
2023/01/26 06:57:04;;;;;;;64.75;21.23;;;1.80;99.90;;;;;;5054223;28;20033;-88
2023/01/26 06:59:29;;;;;;;64.97;20.08;;;1.80;99.90;;;;;;5054717;28;20044;-87
2023/01/26 07:01:55;;;;;;;66.95;21.42;;;1.80;99.90;;;;;;5053783;28;20060;-89
2023/01/26 07:04:26;;;;;;;61.85;19.48;;;1.80;99.90;;;;;;5054423;28;20043;-90
2023/01/26 07:06:52;;;;;;;73.47;22.83;;;1.90;99.90;;;;;;5054651;28;20041;-89
2023/01/26 07:09:29;;;;;;;66.57;21.75;;;1.80;99.90;;;;;;5037678;28;20037;-88
2023/01/26 07:11:55;;;;;;;59.00;20.83;;;1.80;99.90;;;;;;5054509;28;20033;-89
2023/01/26 07:14:23;;;;;;;60.28;21.05;;;1.80;99.90;;;;;;5054176;28;20033;-89
2023/01/26 07:16:49;;;;;;;71.03;22.02;;;1.80;99.90;;;;;;5054417;28;20049;-88
2023/01/26 07:19:15;;;;;;;65.97;20.70;;;1.80;99.90;;;;;;5037599;28;20468;-89
2023/01/26 07:21:41;;;;;;;65.60;20.25;;;1.90;99.90;;;;;;5053671;28;20029;-89
2023/01/26 07:24:28;;;;;;;68.85;21.15;;;1.80;99.90;;;;;;5054413;28;20036;-90
2023/01/26 07:26:58;;;;;;;71.20;22.33;;;1.80;99.90;;;;;;5054000;28;20124;-90
2023/01/26 07:29:26;;;;;;;75.05;23.50;;;1.90;99.90;;;;;;5054056;28;20040;-92
2023/01/26 07:31:52;;;;;;;71.30;22.20;;;1.90;99.90;;;;;;5055376;28;20029;-90
2023/01/26 07:34:18;;;;;;;69.20;21.88;;;1.90;99.90;;;;;;5039473;28;20554;-90
2023/01/26 07:36:49;;;;;;;75.32;21.75;;;1.80;99.90;;;;;;5038049;28;20041;-91
2023/01/26 07:39:17;;;;;;;67.78;22.20;;;1.90;99.90;;;;;;5038593;28;20033;-90
2023/01/26 07:41:50;;;;;;;62.33;20.50;;;1.90;99.90;;;;;;5054903;28;20060;-91
2023/01/26 07:44:16;;;;;;;74.00;22.30;;;1.90;99.90;;;;;;5037751;28;20091;-91
2023/01/26 07:46:42;;;;;;;72.55;22.95;;;1.80;99.90;;;;;;5054489;28;20042;-91
2023/01/26 07:49:11;;;;;;;69.80;22.38;;;1.90;99.90;;;;;;5056217;28;20098;-90
2023/01/26 07:51:40;;;;;;;75.53;21.92;;;1.90;99.90;;;;;;5041515;28;20041;-90
2023/01/26 07:54:06;;;;;;;68.00;20.67;;;1.90;99.90;;;;;;5055313;28;20029;-91
2023/01/26 07:56:36;;;;;;;65.88;21.40;;;2.00;99.90;;;;;;5054463;28;20033;-90
2023/01/26 07:59:02;;;;;;;71.82;21.20;;;2.00;99.90;;;;;;5054964;28;20090;-91
2023/01/26 08:01:28;;;;;;;76.65;21.05;;;2.00;99.90;;;;;;5054876;28;20433;-91
2023/01/26 08:03:54;;;;;;;74.47;22.55;;;2.00;99.90;;;;;;5060672;28;20025;-91
2023/01/26 08:06:28;;;;;;;76.55;23.30;;;1.90;99.90;;;;;;5077399;28;20021;-92
2023/01/26 08:08:53;;;;;;;70.10;21.40;;;2.00;99.90;;;;;;5077085;28;20037;-91
2023/01/26 08:11:24;;;;;;;68.45;20.65;;;2.00;99.90;;;;;;5060194;28;20040;-90
2023/01/26 08:14:12;;;;;;;73.40;22.88;;;2.00;99.90;;;;;;5054974;28;20036;-92
2023/01/26 08:16:41;;;;;;;62.85;21.52;;;2.00;99.90;;;;;;5055128;28;20049;-91
2023/01/26 08:19:10;;;;;;;65.43;20.65;;;2.00;99.90;;;;;;5055684;28;20191;-92
2023/01/26 08:21:36;;;;;;;69.15;22.02;;;2.00;99.90;;;;;;5054870;28;20503;-90
2023/01/26 08:24:30;;;;;;;74.82;21.60;;;2.00;99.90;;;;;;5056189;28;20041;-92
2023/01/26 08:27:05;;;;;;;71.88;21.42;;;2.00;99.90;;;;;;5057563;28;20029;-93
2023/01/26 08:29:33;;;;;;;79.35;20.83;;;2.00;99.90;;;;;;5057843;28;20105;-93
2023/01/26 08:32:01;;;;;;;67.18;19.98;;;2.00;99.90;;;;;;5039657;28;20038;-91
2023/01/26 08:34:27;;;;;;;61.67;19.92;;;2.00;99.90;;;;;;5058354;28;20153;-91
2023/01/26 08:36:58;;;;;;;66.55;20.15;;;2.00;99.90;;;;;;5062167;28;20052;-91
2023/01/26 08:39:34;;;;;;;;;;;2.00;99.90;;;;;;5054031;28;20477;-91
2023/01/26 08:42:05;;;;;;;58.15;18.17;;;2.10;99.90;;;;;;5066265;28;19912;-92
2023/01/26 08:44:52;;;;;;;;;;;;;;;;;;;;;
2023/01/26 08:47:47;;;;;;;;;;;;;;;;;;;;;
2023/01/26 08:50:18;;;;;;;73.05;19.98;;;2.10;99.90;;;;;;5056183;28;20124;-91
2023/01/26 08:52:51;;;;;;;62.60;18.67;;;2.10;99.90;;;;;;5054883;28;20087;-92
2023/01/26 08:55:46;;;;;;;70.75;20.38;;;2.10;99.90;;;;;;5038598;28;20076;-91
2023/01/26 09:01:49;;;;;;;65.50;19.35;;;2.10;99.90;;;;;;5033645;28;20037;-95
2023/01/26 09:04:42;;;;;;;68.30;18.95;;;2.10;99.90;;;;;;5042919;28;20037;-95
2023/01/26 09:07:59;;;;;;;79.90;21.92;;;2.10;99.90;;;;;;5056380;28;20040;-93
2023/01/26 09:14:15;;;;;;;76.07;20.00;;;2.10;99.90;;;;;;5014777;28;20400;-95
2023/01/26 09:17:17;;;;;;;65.20;20.65;;;2.10;99.90;;;;;;5041836;28;20045;-95
2023/01/26 09:23:37;;;;;;;66.50;19.35;;;2.10;99.90;;;;;;5044871;28;20037;-95
2023/01/26 09:27:02;;;;;;;;;;;;;;;;;;;;;
2023/01/26 09:37:14;;;;;;;80.10;19.45;;;2.20;99.90;;;;;;4931566;29;20127;-94
2023/01/26 09:39:43;;;;;;;66.72;19.63;;;2.10;99.90;;;;;;5002147;28;20044;-96
2023/01/26 09:43:08;;;;;;;;;;;;;;;;;;;;;
2023/01/26 09:46:06;;;;;;;96.95;21.02;;;2.20;99.90;;;;;;5058458;28;20092;-95
2023/01/26 09:49:06;;;;;;;89.47;19.25;;;2.20;99.90;;;;;;5018566;28;20040;-94
2023/01/26 09:51:58;;;;;;;;;;;;;;;;;;;;;
2023/01/26 09:54:52;;;;;;;79.45;20.55;;;2.20;99.90;;;;;;5060067;28;20525;-95
2023/01/26 09:57:57;;;;;;;72.53;20.17;;;2.30;99.90;;;;;;5060295;28;20087;-96
2023/01/26 10:00:45;;;;;;;72.72;19.02;;;2.30;99.90;;;;;;5043112;28;20029;-95
2023/01/26 10:03:16;;;;;;;79.85;19.33;;;2.30;99.90;;;;;;5041631;28;20040;-94
2023/01/26 10:06:03;;;;;;;77.03;20.63;;;2.30;99.90;;;;;;5055843;28;20086;-92
2023/01/26 10:08:31;;;;;;;85.95;20.88;;;2.30;99.90;;;;;;5056575;28;20033;-93
2023/01/26 10:11:36;;;;;;;69.07;18.08;;;2.40;99.90;;;;;;5023907;28;20033;-93
2023/01/26 10:14:20;;;;;;;74.55;18.30;;;2.40;99.90;;;;;;5044011;28;20060;-92
2023/01/26 10:17:06;;;;;;;76.95;18.55;;;2.40;99.90;;;;;;5056348;28;20036;-90
2023/01/26 10:19:48;;;;;;;74.32;18.13;;;2.40;99.90;;;;;;5055835;28;20091;-88
2023/01/26 10:22:30;;;;;;;76.43;18.23;;;2.50;99.90;;;;;;5051554;28;20064;-89
2023/01/26 10:25:01;;;;;;;71.28;16.08;;;2.50;99.90;;;;;;5057762;28;20117;-89
2023/01/26 10:27:30;;;;;;;75.93;17.88;;;2.60;99.90;;;;;;5056532;28;20092;-89
2023/01/26 10:29:55;;;;;;;64.85;17.02;;;2.60;99.90;;;;;;5068713;28;20024;-90
2023/01/26 10:32:21;;;;;;;64.82;17.10;;;2.60;99.90;;;;;;5050498;28;20440;-88
2023/01/26 10:34:58;;;;;;;66.38;16.67;;;2.60;99.90;;;;;;5045657;28;20050;-89
2023/01/26 10:37:30;;;;;;;71.95;17.30;;;2.70;99.90;;;;;;5043117;28;20087;-89
2023/01/26 10:40:00;;;;;;;69.75;15.48;;;2.70;99.90;;;;;;5038505;28;20037;-89
2023/01/26 10:42:29;;;;;;;65.72;16.10;;;2.70;99.90;;;;;;5056912;28;20504;-89
2023/01/26 10:45:02;;;;;;;61.67;15.23;;;2.80;99.90;;;;;;5038571;28;20044;-89
2023/01/26 10:47:43;;;;;;;65.90;15.25;;;2.80;99.90;;;;;;5038184;28;20033;-89
2023/01/26 10:50:23;;;;;;;54.85;14.10;;;2.80;99.90;;;;;;5023413;28;20037;-88
2023/01/26 10:53:00;;;;;;;74.53;15.65;;;2.90;99.90;;;;;;5037786;28;20029;-89
2023/01/26 10:55:31;;;;;;;58.97;14.30;;;2.90;99.90;;;;;;5038092;28;20079;-90
2023/01/26 10:58:00;;;;;;;77.63;15.38;;;3.00;99.90;;;;;;5038132;28;20029;-88
2023/01/26 11:00:31;;;;;;;70.60;15.40;;;3.00;99.90;;;;;;5038225;28;20056;-90
2023/01/26 11:03:14;;;;;;;65.82;14.05;;;3.10;99.90;;;;;;5034483;28;20045;-89
2023/01/26 11:05:42;;;;;;;65.60;14.93;;;3.00;99.90;;;;;;5038118;28;20086;-89
2023/01/26 11:08:33;;;;;;;54.85;13.95;;;3.10;99.90;;;;;;5037678;28;20036;-90
2023/01/26 11:10:59;;;;;;;55.67;14.65;;;3.20;99.90;;;;;;5021494;28;20063;-89
2023/01/26 11:13:54;;;;;;;53.65;13.52;;;3.20;99.90;;;;;;5037789;28;20472;-89
2023/01/26 11:16:30;;;;;;;49.53;13.00;;;3.30;99.90;;;;;;5045981;28;20032;-89
2023/01/26 11:19:09;;;;;;;58.85;13.40;;;3.30;99.90;;;;;;5049856;28;20075;-90
2023/01/26 11:21:58;;;;;;;68.20;13.93;;;3.40;99.90;;;;;;5054085;28;20048;-90
2023/01/26 11:24:54;;;;;;;64.40;15.10;;;3.50;99.90;;;;;;5053968;28;20029;-89
2023/01/26 11:27:30;;;;;;;59.20;14.50;;;3.60;99.90;;;;;;5053220;28;20083;-89
2023/01/26 11:30:22;;;;;;;52.45;13.68;;;3.60;99.90;;;;;;5053897;28;20033;-90
2023/01/26 11:33:24;;;;;;;62.42;14.45;;;3.70;99.90;;;;;;5053859;28;20040;-89
2023/01/26 11:35:56;;;;;;;57.55;13.65;;;3.80;99.90;;;;;;5051951;28;20068;-90
2023/01/26 11:38:53;;;;;;;45.50;13.50;;;3.90;99.90;;;;;;5054091;28;20063;-89
2023/01/26 11:42:08;;;;;;;52.67;12.50;;;3.90;99.90;;;;;;5053494;28;20029;-89
2023/01/26 11:44:59;;;;;;;53.22;15.15;;;4.10;99.90;;;;;;5046861;28;20112;-89
2023/01/26 11:47:41;;;;;;;;;;;4.10;99.90;;;;;;5052035;28;20383;-89
2023/01/26 11:50:35;;;;;;;43.85;10.85;;;4.20;99.90;;;;;;5053862;28;19904;-91
2023/01/26 11:53:22;;;;;;;50.97;10.88;;;4.20;99.90;;;;;;5053581;28;20036;-92
2023/01/26 11:56:06;;;;;;;45.92;9.98;;;4.30;99.90;;;;;;5054547;28;20040;-92
2023/01/26 11:59:05;;;;;;;48.63;10.98;;;4.40;99.90;;;;;;5054443;28;20033;-92
2023/01/26 12:02:16;;;;;;;45.70;10.70;;;4.50;99.90;;;;;;5055504;28;20036;-93
2023/01/26 12:04:55;;;;;;;49.22;11.73;;;4.50;99.90;;;;;;5045931;28;20048;-93
2023/01/26 12:07:50;;;;;;;43.25;9.70;;;4.60;99.90;;;;;;5068290;28;20132;-94
2023/01/26 12:10:41;;;;;;;44.92;11.45;;;4.70;99.90;;;;;;5082032;28;20063;-94
2023/01/26 12:13:44;;;;;;;43.08;10.00;;;4.80;99.90;;;;;;5055913;28;20048;-91
2023/01/26 12:16:24;;;;;;;32.40;8.60;;;4.90;99.90;;;;;;5054839;28;20025;-92
2023/01/26 12:22:29;;;;;;;36.90;9.18;;;5.00;99.90;;;;;;5046066;28;20036;-91
2023/01/26 12:25:03;;;;;;;48.83;10.00;;;5.10;99.90;;;;;;5054544;28;20037;-93
2023/01/26 12:27:42;;;;;;;42.83;10.20;;;5.20;99.90;;;;;;5054253;28;20025;-92
2023/01/26 12:30:46;;;;;;;38.92;8.60;;;5.30;99.90;;;;;;5054044;28;20040;-91
2023/01/26 12:33:21;;;;;;;39.03;8.32;;;5.40;99.90;;;;;;5072752;28;20058;-91
2023/01/26 12:35:56;;;;;;;33.92;7.32;;;5.50;99.90;;;;;;5051236;28;20036;-91
2023/01/26 12:38:59;;;;;;;41.78;8.80;;;5.50;99.90;;;;;;5054061;28;20025;-91
2023/01/26 12:41:55;;;;;;;;;;;;;;;;;;;;;
2023/01/26 12:51:44;;;;;;;37.83;6.50;;;5.80;99.90;;;;;;5014699;28;20033;-91
2023/01/26 12:54:56;;;;;;;;;;;;;;;;;;;;;
2023/01/26 12:57:43;;;;;;;;;;;;;;;;;;;;;
2023/01/26 13:00:53;;;;;;;42.15;6.75;;;6.00;99.90;;;;;;5037803;28;20043;-91
2023/01/26 13:03:27;;;;;;;35.00;4.97;;;6.10;99.90;;;;;;5000258;28;20045;-91
2023/01/26 13:06:26;;;;;;;;;;;;;;;;;;;;;
2023/01/26 13:12:52;;;;;;;33.13;5.43;;;6.30;99.90;;;;;;5034574;28;20064;-90
2023/01/26 13:15:21;;;;;;;;;;;6.30;99.90;;;;;;5039217;28;20037;-91
2023/01/26 13:17:55;;;;;;;24.05;4.15;;;6.40;99.90;;;;;;5042576;28;19917;-91
2023/01/26 13:20:39;;;;;;;34.03;4.05;;;6.40;99.90;;;;;;5037504;28;20087;-93
2023/01/26 13:26:46;;;;;;;27.35;3.42;;;6.50;99.90;;;;;;5034797;28;20098;-93
2023/01/26 13:29:26;;;;;;;35.17;3.75;;;6.50;99.90;;;;;;5036636;28;20044;-93
2023/01/26 13:32:03;;;;;;;33.00;3.80;;;6.60;99.90;;;;;;5036969;28;20034;-93
2023/01/26 13:35:02;;;;;;;31.13;3.35;;;6.70;99.90;;;;;;5036991;28;20042;-93
2023/01/26 13:38:39;;;;;;;24.75;3.58;;;6.70;99.90;;;;;;5041104;22;20694;-93
2023/01/26 13:41:21;;;;;;;26.88;3.42;;;6.80;99.90;;;;;;4922557;29;20032;-92
2023/01/26 13:44:19;;;;;;;32.28;5.15;;;6.80;99.90;;;;;;4938355;29;20046;-92
2023/01/26 13:56:38;;;;;;;27.88;3.67;;;6.90;99.90;;;;;;5035233;28;19912;-92
2023/01/26 13:59:16;;;;;;;19.45;2.70;;;6.90;99.90;;;;;;5018795;28;20029;-92
2023/01/26 14:02:42;;;;;;;23.42;3.33;;;7.00;99.90;;;;;;5019545;28;20029;-91
2023/01/26 14:05:52;;;;;;;20.70;2.92;;;7.00;99.90;;;;;;5074281;22;20057;-92
2023/01/26 14:12:14;;;;;;;29.88;3.75;;;7.10;99.90;;;;;;5026766;28;20059;-91
2023/01/26 14:15:33;;;;;;;20.10;3.65;;;7.10;99.90;;;;;;5020177;28;20041;-91
2023/01/26 14:18:27;;;;;;;14.07;2.45;;;7.20;99.90;;;;;;5018929;28;20053;-93
2023/01/26 14:24:52;;;;;;;15.77;2.83;;;7.20;99.90;;;;;;4938138;29;20035;-93
2023/01/26 14:27:52;;;;;;;26.08;3.08;;;7.30;99.90;;;;;;4957342;29;20042;-92
2023/01/26 14:30:42;;;;;;;24.17;2.65;;;7.30;99.90;;;;;;4944743;29;20043;-92
2023/01/26 14:33:33;;;;;;;19.23;2.63;;;7.30;99.90;;;;;;4945166;29;20432;-92
2023/01/26 14:39:23;;;;;;;18.20;3.00;;;7.40;99.90;;;;;;5036537;28;20040;-91
2023/01/26 14:42:07;;;;;;;20.80;2.88;;;7.40;99.90;;;;;;5003134;28;20041;-91
2023/01/26 14:44:45;;;;;;;18.67;2.25;;;7.40;99.90;;;;;;5018659;28;20467;-91
2023/01/26 14:47:30;;;;;;;18.05;2.83;;;7.40;99.90;;;;;;5003525;28;20107;-91
2023/01/26 14:50:10;;;;;;;16.13;2.33;;;7.50;99.90;;;;;;5018579;28;20033;-91
2023/01/26 14:52:45;;;;;;;11.27;1.88;;;7.50;99.90;;;;;;5019093;28;20037;-92
2023/01/26 14:55:44;;;;;;;14.82;3.03;;;7.50;99.90;;;;;;4997432;28;20383;-92
2023/01/26 14:58:48;;;;;;;14.90;2.05;;;7.50;99.90;;;;;;5012010;28;20041;-92
2023/01/26 15:01:25;;;;;;;14.60;2.03;;;7.50;99.90;;;;;;5004598;28;20521;-92
2023/01/26 15:04:20;;;;;;;;;;;;;;;;;;;;;
2023/01/26 15:07:40;;;;;;;16.42;1.90;;;7.60;99.90;;;;;;5039462;28;20557;-92
2023/01/26 15:10:49;;;;;;;16.52;1.83;;;7.60;99.90;;;;;;5019838;28;20056;-91
2023/01/26 15:13:14;;;;;;;14.70;1.83;;;7.60;99.90;;;;;;5020582;28;20045;-90
2023/01/26 15:19:26;;;;;;;9.80;1.83;;;7.60;99.90;;;;;;5037168;28;20042;-89
2023/01/26 15:21:55;;;;;;;8.75;1.33;;;7.60;99.90;;;;;;5017790;28;20038;-89
2023/01/26 15:24:20;;;;;;;12.65;1.98;;;7.60;99.90;;;;;;5002252;28;20034;-92
2023/01/26 15:27:10;;;;;;;10.18;1.70;;;7.60;99.90;;;;;;4994995;28;20068;-91
2023/01/26 15:29:44;;;;;;;7.05;1.90;;;7.60;99.90;;;;;;5044158;28;20136;-89